Terminal Aerodrome Forecast
Issued by NWS

Home | Current Version | Previous Version | Text Only | Print | Product List | Glossary On
Versions: 1 2 3 4 5 6 7 8 9 10 11 12 13 14 15 16 17 18 19
452
FTUS41 KCAR 240533
TAFHUL
TAF
KHUL 240533Z 2406/2506 21010G16KT 6SM BR OVC009
      TEMPO 2406/2409 3SM -FZDZSN
     FM240900 23010KT P6SM OVC008
     FM241000 24009KT P6SM BKN015
     FM241200 26008KT P6SM BKN035
     FM250300 35010G20KT P6SM FEW220
     FM250500 35007KT P6SM SKC=

USA.gov is the U.S. government's official web portal to all federal, state and local government web resources and services.